Time;durP1;ratioP1;P1;durP2;ratioP2;P2;SDS_P1;SDS_P2;PMS_P1;PMS_P2;Temp;Humidity;BMP_temperature;BMP_pressure;BME280_temperature;BME280_humidity;BME280_pressure;Samples;Min_cycle;Max_cycle;Signal;HPM_P1;HPM_P2
2023/10/26 00:00:47;;;;;;;6.25;5.07;;;14.20;69.90;16.00;99467.00;;;;5005810;28;20201;-76
2023/10/26 00:03:14;;;;;;;8.32;5.20;;;14.20;69.90;16.00;99468.00;;;;5005056;28;20240;-75
2023/10/26 00:05:41;;;;;;;5.95;4.93;;;14.20;70.00;16.00;99459.00;;;;5005437;28;20661;-76
2023/10/26 00:08:08;;;;;;;6.85;5.55;;;14.20;70.00;15.90;99466.00;;;;5005726;28;20201;-75
2023/10/26 00:10:39;;;;;;;7.90;4.93;;;14.10;70.60;15.90;99474.00;;;;4996070;28;20193;-76
2023/10/26 00:13:06;;;;;;;6.78;5.78;;;14.20;70.00;15.90;99468.00;;;;5006632;28;20211;-76
2023/10/26 00:15:33;;;;;;;5.68;4.95;;;14.10;70.10;15.90;99468.00;;;;5008306;28;20198;-76
2023/10/26 00:18:01;;;;;;;5.85;4.93;;;14.10;70.10;15.90;99466.00;;;;5006528;28;20662;-76
2023/10/26 00:20:28;;;;;;;5.63;4.70;;;14.10;70.10;15.90;99466.00;;;;5006734;28;20592;-76
2023/10/26 00:22:55;;;;;;;6.05;4.68;;;14.10;70.10;16.00;99463.00;;;;5012365;28;20228;-76
2023/10/26 00:25:22;;;;;;;11.95;5.25;;;14.10;70.20;15.90;99461.00;;;;5010853;28;20587;-76
2023/10/26 00:27:52;;;;;;;5.68;5.10;;;14.10;70.20;16.00;99460.00;;;;5008428;28;20217;-76
2023/10/26 00:30:19;;;;;;;8.75;5.55;;;14.10;70.20;15.90;99462.00;;;;4998212;28;20193;-76
2023/10/26 00:32:46;;;;;;;5.70;5.03;;;14.10;70.30;15.90;99461.00;;;;5009545;28;20583;-75
2023/10/26 00:35:14;;;;;;;6.60;5.57;;;14.10;70.30;15.90;99469.00;;;;5007156;28;20193;-75
2023/10/26 00:37:41;;;;;;;5.53;4.97;;;14.10;70.30;15.90;99463.00;;;;5008923;28;20193;-76
2023/10/26 00:40:10;;;;;;;7.00;5.43;;;14.10;71.00;15.90;99466.00;;;;5003001;28;20197;-75
2023/10/26 00:42:37;;;;;;;5.50;5.00;;;14.10;70.30;15.90;99478.00;;;;5004652;28;20220;-76
2023/10/26 00:45:06;;;;;;;7.07;5.30;;;14.10;70.30;15.90;99484.00;;;;5004751;28;20205;-75
2023/10/26 00:47:33;;;;;;;5.82;4.95;;;14.10;70.40;16.00;99479.00;;;;5004252;28;20220;-76
2023/10/26 00:50:01;;;;;;;6.28;4.88;;;14.10;70.40;16.00;99483.00;;;;5010181;28;20228;-75
2023/10/26 00:52:30;;;;;;;7.90;5.28;;;14.10;70.40;16.00;99486.00;;;;5005237;28;20216;-75
2023/10/26 00:54:58;;;;;;;6.68;5.05;;;14.10;70.40;16.00;99483.00;;;;5002404;28;20212;-75
2023/10/26 00:57:28;;;;;;;7.53;5.80;;;14.20;70.50;16.00;99484.00;;;;4998798;28;20192;-76
2023/10/26 00:59:55;;;;;;;6.28;4.90;;;14.20;70.50;16.00;99494.00;;;;5001948;28;20197;-75
2023/10/26 01:02:24;;;;;;;8.40;5.20;;;14.20;70.50;16.00;99502.00;;;;5003368;28;20255;-75
2023/10/26 01:04:52;;;;;;;6.35;4.80;;;14.20;70.50;16.00;99499.00;;;;4997135;28;20320;-76
2023/10/26 01:07:19;;;;;;;6.05;5.45;;;14.20;70.50;16.00;99499.00;;;;5009496;28;20296;-76
2023/10/26 01:09:48;;;;;;;7.30;5.00;;;14.20;70.50;16.00;99505.00;;;;4999470;28;20673;-75
2023/10/26 01:12:16;;;;;;;5.78;5.18;;;14.20;70.50;16.00;99504.00;;;;5003621;28;20217;-75
2023/10/26 01:14:44;;;;;;;5.53;4.93;;;14.20;70.50;16.00;99502.00;;;;4999676;28;20288;-76
2023/10/26 01:17:12;;;;;;;5.32;4.70;;;14.20;70.50;16.00;99504.00;;;;5008557;28;20201;-75
2023/10/26 01:19:41;;;;;;;7.28;5.78;;;14.20;70.50;16.00;99513.00;;;;5007406;28;20203;-76
2023/10/26 01:22:10;;;;;;;5.68;4.80;;;14.20;70.40;16.00;99507.00;;;;5005304;28;20558;-75
2023/10/26 01:24:38;;;;;;;9.60;5.88;;;14.20;70.50;16.00;99513.00;;;;5006446;28;20548;-76
2023/10/26 01:27:06;;;;;;;8.13;5.38;;;14.20;70.50;16.00;99517.00;;;;4997439;28;20213;-76
2023/10/26 01:29:34;;;;;;;5.80;5.20;;;14.20;70.50;16.00;99513.00;;;;4999601;28;20643;-75
2023/10/26 01:32:01;;;;;;;6.68;5.55;;;14.20;70.50;16.00;99521.00;;;;5004668;28;20201;-75
2023/10/26 01:34:28;;;;;;;7.45;5.57;;;14.20;70.50;16.10;99511.00;;;;5003716;28;20551;-76
2023/10/26 01:36:55;;;;;;;6.57;5.65;;;14.20;70.50;16.10;99508.00;;;;4999979;28;20671;-75
2023/10/26 01:39:24;;;;;;;6.05;4.90;;;14.20;70.40;16.00;99520.00;;;;5000325;28;20205;-75
2023/10/26 01:41:51;;;;;;;7.22;6.00;;;14.20;70.40;16.10;99518.00;;;;5004048;28;20206;-75
2023/10/26 01:44:18;;;;;;;7.43;5.30;;;14.30;70.40;16.00;99517.00;;;;4999759;28;20224;-76
2023/10/26 01:46:45;;;;;;;8.25;5.38;;;14.20;70.30;16.00;99508.00;;;;5007240;28;20625;-75
2023/10/26 01:49:13;;;;;;;5.93;5.10;;;14.30;70.40;16.00;99521.00;;;;4999469;28;20216;-75
2023/10/26 01:51:40;;;;;;;6.60;4.97;;;14.30;70.40;16.10;99510.00;;;;4996201;28;20212;-75
2023/10/26 01:54:07;;;;;;;7.95;5.07;;;14.20;70.30;16.00;99515.00;;;;5003805;28;20676;-75
2023/10/26 01:56:36;;;;;;;6.18;5.10;;;14.20;70.30;16.00;99514.00;;;;5009910;28;20197;-76
2023/10/26 01:59:03;;;;;;;5.88;5.28;;;14.20;70.30;16.00;99508.00;;;;5002663;28;20200;-75
2023/10/26 02:01:30;;;;;;;5.97;5.38;;;14.20;70.30;16.00;99511.00;;;;4995230;28;20205;-76
2023/10/26 02:03:57;;;;;;;5.65;5.00;;;14.20;70.30;16.10;99504.00;;;;5000294;28;20236;-76
2023/10/26 02:06:24;;;;;;;5.50;4.95;;;14.20;70.30;16.00;99501.00;;;;5000453;28;20200;-75
2023/10/26 02:08:51;;;;;;;6.35;5.53;;;14.20;70.30;16.00;99497.00;;;;5007611;28;20666;-75
2023/10/26 02:11:18;;;;;;;5.90;5.13;;;14.20;70.30;16.00;99494.00;;;;5002168;28;20204;-75
2023/10/26 02:13:47;;;;;;;5.68;4.93;;;14.20;70.20;16.00;99498.00;;;;5007260;28;20632;-75
2023/10/26 02:16:14;;;;;;;6.15;5.30;;;14.20;70.20;16.10;99495.00;;;;4998972;28;20200;-75
2023/10/26 02:18:44;;;;;;;5.80;5.20;;;14.30;70.40;16.00;99493.00;;;;5001177;28;20213;-76
2023/10/26 02:21:12;;;;;;;6.65;5.38;;;14.30;70.40;16.00;99494.00;;;;5007441;28;20684;-75
2023/10/26 02:23:40;;;;;;;11.10;6.03;;;14.20;70.30;16.00;99493.00;;;;5002738;28;20228;-76
2023/10/26 02:26:08;;;;;;;7.88;5.95;;;14.20;70.20;16.00;99499.00;;;;5005551;28;20197;-75
2023/10/26 02:28:35;;;;;;;7.38;5.78;;;14.20;70.30;16.00;99498.00;;;;4999459;28;21002;-76
2023/10/26 02:31:04;;;;;;;7.95;5.30;;;14.20;70.30;16.00;99503.00;;;;5002489;28;20204;-76
2023/10/26 02:33:31;;;;;;;7.15;6.10;;;14.20;70.30;16.00;99504.00;;;;5006277;28;20198;-75
2023/10/26 02:35:57;;;;;;;8.20;5.65;;;14.20;70.30;16.00;99495.00;;;;4999852;28;20592;-75
2023/10/26 02:38:25;;;;;;;6.75;5.97;;;14.20;70.30;16.00;99492.00;;;;5002356;28;20205;-75
2023/10/26 02:40:52;;;;;;;7.00;6.15;;;14.20;70.40;16.00;99499.00;;;;4996763;28;20202;-75
2023/10/26 02:43:19;;;;;;;7.38;6.28;;;14.20;70.40;16.00;99507.00;;;;5009549;28;20229;-75
2023/10/26 02:45:46;;;;;;;8.95;6.88;;;14.20;70.40;16.00;99500.00;;;;4993672;28;20211;-75
2023/10/26 02:48:14;;;;;;;7.75;6.45;;;14.20;70.40;16.00;99502.00;;;;5006406;28;20220;-75
2023/10/26 02:50:41;;;;;;;6.88;6.07;;;14.20;70.40;16.00;99505.00;;;;4999397;28;20248;-76
2023/10/26 02:53:08;;;;;;;8.23;5.90;;;14.20;70.40;16.00;99506.00;;;;5006445;28;20772;-75
2023/10/26 02:55:35;;;;;;;6.22;5.63;;;14.20;70.50;16.10;99509.00;;;;5003246;28;20193;-75
2023/10/26 02:58:02;;;;;;;7.93;6.18;;;14.30;70.50;16.10;99515.00;;;;4999405;28;20212;-75
2023/10/26 03:00:29;;;;;;;6.88;5.93;;;14.30;70.60;16.10;99507.00;;;;4997253;28;20189;-75
2023/10/26 03:02:56;;;;;;;10.63;6.20;;;14.20;70.50;16.10;99502.00;;;;5009140;28;20225;-75
2023/10/26 03:05:25;;;;;;;7.40;6.05;;;14.30;70.60;16.10;99501.00;;;;5009448;28;20216;-75
2023/10/26 03:07:53;;;;;;;6.70;5.65;;;14.30;71.30;16.10;99488.00;;;;5003941;28;20201;-75
2023/10/26 03:10:20;;;;;;;8.07;6.53;;;14.30;70.60;16.10;99484.00;;;;4996646;28;20197;-75
2023/10/26 03:12:48;;;;;;;9.77;6.07;;;14.30;70.60;16.10;99482.00;;;;5004063;28;20761;-76
2023/10/26 03:15:16;;;;;;;11.40;6.18;;;14.30;70.60;16.10;99480.00;;;;4994958;28;20201;-75
2023/10/26 03:17:43;;;;;;;8.85;7.05;;;14.30;70.70;16.20;99475.00;;;;5006749;28;20201;-75
2023/10/26 03:20:12;;;;;;;8.13;7.20;;;14.40;70.80;16.20;99487.00;;;;5006006;28;20212;-75
2023/10/26 03:22:40;;;;;;;10.98;6.90;;;14.40;70.80;16.20;99484.00;;;;5005828;28;20201;-75
2023/10/26 03:25:13;;;;;;;8.68;7.40;;;14.40;70.80;16.20;99490.00;;;;5007941;28;20206;-75
2023/10/26 03:27:41;;;;;;;9.25;7.53;;;14.40;70.70;16.20;99479.00;;;;5007057;28;20305;-75
2023/10/26 03:30:09;;;;;;;9.70;6.18;;;14.40;70.70;16.20;99483.00;;;;5009508;28;20197;-75
2023/10/26 03:32:37;;;;;;;15.10;7.03;;;14.40;70.70;16.20;99484.00;;;;5007064;28;20193;-75
2023/10/26 03:35:04;;;;;;;9.70;6.50;;;14.40;70.70;16.20;99477.00;;;;5007060;28;20212;-75
2023/10/26 03:37:32;;;;;;;9.65;7.10;;;14.40;70.70;16.20;99477.00;;;;5007383;28;20194;-75
2023/10/26 03:40:00;;;;;;;10.50;7.65;;;14.40;70.70;16.20;99474.00;;;;5003213;28;20289;-75
2023/10/26 03:42:27;;;;;;;17.20;7.00;;;14.50;70.70;16.20;99484.00;;;;5006439;28;20212;-75
2023/10/26 03:44:54;;;;;;;14.13;7.85;;;14.40;70.70;16.20;99482.00;;;;5006373;28;20224;-75
2023/10/26 03:47:22;;;;;;;8.57;7.28;;;14.50;70.70;16.30;99482.00;;;;5009146;28;20197;-75
2023/10/26 03:49:51;;;;;;;12.00;6.95;;;14.50;70.70;16.30;99487.00;;;;5002897;28;20193;-76
2023/10/26 03:52:19;;;;;;;17.48;6.55;;;14.50;70.70;16.30;99483.00;;;;5004476;28;20210;-75
2023/10/26 03:54:46;;;;;;;9.65;6.95;;;14.50;70.70;16.30;99489.00;;;;5004006;28;20193;-75
2023/10/26 03:57:15;;;;;;;13.02;7.50;;;14.50;70.70;16.30;99488.00;;;;5011054;28;20197;-76
2023/10/26 03:59:42;;;;;;;13.50;7.45;;;14.50;70.70;16.30;99475.00;;;;4996449;28;20270;-76
2023/10/26 04:02:10;;;;;;;10.20;7.45;;;14.50;70.70;16.30;99488.00;;;;5007701;28;20223;-76
2023/10/26 04:04:38;;;;;;;10.52;6.65;;;14.50;70.60;16.30;99491.00;;;;5005771;28;20272;-75
2023/10/26 04:07:05;;;;;;;8.30;6.28;;;14.50;70.60;16.30;99493.00;;;;5010411;28;20201;-76
2023/10/26 04:09:32;;;;;;;9.88;6.70;;;14.50;70.60;16.30;99490.00;;;;5004557;28;20566;-75
2023/10/26 04:11:59;;;;;;;7.50;5.90;;;14.50;70.60;16.30;99486.00;;;;5008044;28;20569;-76
2023/10/26 04:14:27;;;;;;;9.85;5.95;;;14.50;70.50;16.20;99485.00;;;;5012063;28;20322;-76
2023/10/26 04:16:54;;;;;;;6.93;6.22;;;14.50;70.50;16.30;99489.00;;;;4998548;28;20197;-75
2023/10/26 04:19:22;;;;;;;11.80;6.78;;;14.50;70.40;16.30;99483.00;;;;5010836;28;20296;-75
2023/10/26 04:21:48;;;;;;;9.27;5.95;;;14.50;70.40;16.20;99481.00;;;;5002768;28;20205;-76
2023/10/26 04:24:15;;;;;;;8.10;6.10;;;14.50;70.30;16.20;99480.00;;;;5002908;28;20229;-75
2023/10/26 04:26:43;;;;;;;9.35;5.70;;;14.40;70.20;16.20;99471.00;;;;5004656;28;20808;-75
2023/10/26 04:29:10;;;;;;;10.40;6.45;;;14.50;70.30;16.20;99473.00;;;;5012056;28;20204;-75
2023/10/26 04:31:38;;;;;;;7.78;5.32;;;14.40;70.80;16.20;99472.00;;;;4997293;28;20249;-75
2023/10/26 04:34:06;;;;;;;6.85;6.07;;;14.40;70.20;16.20;99472.00;;;;5011057;28;20201;-75
2023/10/26 04:36:33;;;;;;;15.30;5.78;;;14.40;70.20;16.20;99475.00;;;;5003900;28;20573;-75
2023/10/26 04:39:00;;;;;;;11.13;5.43;;;14.40;70.20;16.10;99475.00;;;;5006492;28;20288;-76
2023/10/26 04:41:27;;;;;;;11.57;6.00;;;14.40;70.20;16.10;99465.00;;;;5010304;28;20193;-75
2023/10/26 04:43:54;;;;;;;16.85;5.53;;;14.40;70.10;16.10;99463.00;;;;5007685;28;20220;-76
2023/10/26 04:46:21;;;;;;;8.18;5.40;;;14.30;70.10;16.10;99468.00;;;;4998945;28;20308;-75
2023/10/26 04:48:49;;;;;;;16.05;5.70;;;14.30;70.10;16.10;99455.00;;;;5004265;28;20210;-76
2023/10/26 04:51:16;;;;;;;15.43;5.40;;;14.30;70.20;16.10;99460.00;;;;4998568;28;20205;-75
2023/10/26 04:53:43;;;;;;;15.63;5.50;;;14.30;70.10;16.10;99451.00;;;;5005163;28;20213;-75
2023/10/26 04:56:11;;;;;;;14.63;5.60;;;14.30;70.10;16.10;99456.00;;;;4999499;28;20196;-75
2023/10/26 04:58:39;;;;;;;15.13;5.82;;;14.30;70.20;16.10;99459.00;;;;5002269;28;20212;-76
2023/10/26 05:01:06;;;;;;;14.77;5.22;;;14.30;70.10;16.10;99455.00;;;;4999392;28;20291;-75
2023/10/26 05:03:33;;;;;;;11.52;5.78;;;14.30;70.10;16.10;99457.00;;;;4997630;28;20232;-75
2023/10/26 05:06:02;;;;;;;12.45;5.45;;;14.30;70.10;16.00;99454.00;;;;4991971;28;20567;-76
2023/10/26 05:08:29;;;;;;;12.57;5.28;;;14.20;70.10;16.10;99461.00;;;;5003414;28;20562;-76
2023/10/26 05:10:56;;;;;;;7.93;5.13;;;14.30;70.10;16.00;99454.00;;;;5001244;28;20201;-76
2023/10/26 05:13:24;;;;;;;9.73;4.35;;;14.20;70.00;16.00;99451.00;;;;4995158;28;20204;-75
2023/10/26 05:15:51;;;;;;;13.50;5.30;;;14.20;70.00;16.00;99452.00;;;;5002113;28;20311;-75
2023/10/26 05:18:18;;;;;;;7.03;4.57;;;14.20;70.00;16.00;99456.00;;;;5003418;28;20285;-75
2023/10/26 05:20:49;;;;;;;10.93;4.43;;;14.20;70.00;15.90;99448.00;;;;4999700;28;20208;-75
2023/10/26 05:23:18;;;;;;;7.28;3.97;;;14.20;69.90;15.90;99454.00;;;;4995795;28;20190;-76
2023/10/26 05:25:45;;;;;;;4.28;3.88;;;14.20;69.80;15.90;99450.00;;;;5001173;28;20670;-76
2023/10/26 05:28:12;;;;;;;7.20;4.30;;;14.10;69.70;15.90;99459.00;;;;5003477;28;20212;-75
2023/10/26 05:30:39;;;;;;;4.78;4.38;;;14.10;69.70;15.90;99459.00;;;;5003794;28;20681;-76
2023/10/26 05:33:06;;;;;;;8.10;4.10;;;14.10;69.60;15.90;99454.00;;;;4996331;28;20190;-75
2023/10/26 05:35:33;;;;;;;6.05;4.22;;;14.10;69.60;15.80;99456.00;;;;4996659;28;20234;-76
2023/10/26 05:38:00;;;;;;;4.65;4.25;;;14.00;69.50;15.80;99450.00;;;;5006322;28;20702;-76
2023/10/26 05:40:28;;;;;;;5.38;4.28;;;14.00;69.50;15.70;99452.00;;;;5004053;28;20198;-76
2023/10/26 05:42:55;;;;;;;5.60;3.83;;;14.00;70.20;15.70;99451.00;;;;5007509;28;20223;-76
2023/10/26 05:45:22;;;;;;;4.40;4.00;;;14.00;69.60;15.70;99451.00;;;;5009976;28;20221;-75
2023/10/26 05:47:53;;;;;;;4.85;4.28;;;13.90;69.60;15.60;99447.00;;;;5005900;28;20201;-75
2023/10/26 05:50:20;;;;;;;4.78;4.35;;;13.90;69.60;15.70;99441.00;;;;4998398;28;20659;-75
2023/10/26 05:52:48;;;;;;;4.63;4.20;;;13.90;69.60;15.70;99441.00;;;;5005115;28;20215;-75
2023/10/26 05:55:15;;;;;;;8.77;3.95;;;13.80;69.60;15.60;99443.00;;;;5001077;28;20198;-75
2023/10/26 05:57:44;;;;;;;4.28;3.88;;;13.80;69.60;15.60;99441.00;;;;5000275;28;20193;-75
2023/10/26 06:00:13;;;;;;;11.40;4.13;;;13.80;69.70;15.60;99441.00;;;;5003983;28;20267;-75
2023/10/26 06:02:40;;;;;;;6.32;3.95;;;13.80;69.70;15.60;99451.00;;;;5002459;28;20292;-75
2023/10/26 06:05:08;;;;;;;9.93;3.92;;;13.80;69.60;15.60;99450.00;;;;5001213;28;20233;-75
2023/10/26 06:07:35;;;;;;;5.93;4.05;;;13.80;69.70;15.60;99448.00;;;;4998834;28;20197;-75
2023/10/26 06:10:03;;;;;;;22.52;4.18;;;13.80;69.80;15.60;99448.00;;;;4991771;28;20204;-75
2023/10/26 06:12:30;;;;;;;13.13;3.78;;;13.80;69.80;15.50;99449.00;;;;4998771;28;20201;-75
2023/10/26 06:14:58;;;;;;;10.30;4.13;;;13.70;69.80;15.50;99448.00;;;;4997437;28;20215;-76
2023/10/26 06:17:25;;;;;;;12.43;4.18;;;13.70;69.80;15.50;99454.00;;;;5001485;28;20189;-75
2023/10/26 06:19:53;;;;;;;17.60;4.00;;;13.70;69.80;15.50;99453.00;;;;4996383;28;20205;-76
2023/10/26 06:22:20;;;;;;;11.55;4.18;;;13.70;69.80;15.50;99453.00;;;;5003873;28;20213;-75
2023/10/26 06:24:47;;;;;;;6.97;4.03;;;13.70;69.80;15.50;99454.00;;;;4995589;28;20233;-75
2023/10/26 06:27:14;;;;;;;15.35;3.67;;;13.70;69.90;15.50;99469.00;;;;5006084;28;20717;-75
2023/10/26 06:29:43;;;;;;;11.20;3.00;;;13.70;69.90;15.40;99466.00;;;;5003132;28;20204;-76
2023/10/26 06:32:12;;;;;;;8.50;3.65;;;13.70;69.70;15.40;99466.00;;;;4995903;28;20204;-75
2023/10/26 06:34:39;;;;;;;9.38;3.38;;;13.60;69.60;15.40;99460.00;;;;5003642;28;20196;-76
2023/10/26 06:37:06;;;;;;;11.70;3.85;;;13.60;69.60;15.40;99458.00;;;;5008157;28;20200;-75
2023/10/26 06:39:33;;;;;;;7.95;3.58;;;13.60;69.60;15.30;99464.00;;;;4996576;28;20216;-76
2023/10/26 06:42:00;;;;;;;8.35;3.80;;;13.60;69.60;15.30;99465.00;;;;5001508;28;20198;-75
2023/10/26 06:44:27;;;;;;;10.48;4.28;;;13.60;69.60;15.30;99466.00;;;;4998096;28;20702;-75
2023/10/26 06:46:54;;;;;;;5.85;3.85;;;13.60;69.70;15.30;99463.00;;;;4991757;28;20203;-75
2023/10/26 06:49:22;;;;;;;13.40;4.35;;;13.50;69.70;15.30;99464.00;;;;4996592;28;20581;-75
2023/10/26 06:51:49;;;;;;;20.98;3.58;;;13.50;69.70;15.30;99457.00;;;;4991969;28;20197;-75
2023/10/26 06:54:17;;;;;;;13.95;4.00;;;13.50;69.70;15.30;99454.00;;;;5001123;28;20236;-75
2023/10/26 06:56:44;;;;;;;16.35;4.18;;;13.50;69.80;15.30;99454.00;;;;5003388;28;20209;-75
2023/10/26 06:59:11;;;;;;;15.88;4.10;;;13.50;69.90;15.30;99448.00;;;;5001564;28;20208;-75
2023/10/26 07:01:38;;;;;;;11.27;4.43;;;13.50;70.00;15.30;99453.00;;;;4999963;28;20204;-75
2023/10/26 07:04:06;;;;;;;10.73;3.90;;;13.50;70.00;15.30;99455.00;;;;5000439;28;20229;-75
2023/10/26 07:06:34;;;;;;;17.02;4.68;;;13.50;70.70;15.30;99453.00;;;;5006264;28;20200;-75
2023/10/26 07:09:03;;;;;;;16.73;4.10;;;13.50;70.00;15.30;99451.00;;;;4996181;28;20220;-75
2023/10/26 07:11:30;;;;;;;10.65;4.32;;;13.50;70.00;15.30;99454.00;;;;4998026;28;20275;-75
2023/10/26 07:13:57;;;;;;;14.43;4.57;;;13.50;70.10;15.30;99449.00;;;;4993725;28;20547;-76
2023/10/26 07:16:25;;;;;;;8.50;4.38;;;13.50;70.20;15.40;99460.00;;;;4990730;28;20189;-76
2023/10/26 07:18:53;;;;;;;12.15;4.03;;;13.50;70.20;15.30;99459.00;;;;4990643;28;20647;-75
2023/10/26 07:21:20;;;;;;;8.10;4.22;;;13.50;70.10;15.30;99466.00;;;;4994983;28;20578;-75
2023/10/26 07:23:48;;;;;;;11.75;4.05;;;13.50;70.10;15.30;99456.00;;;;4994005;28;20197;-75
2023/10/26 07:26:18;;;;;;;11.05;4.18;;;13.60;70.10;15.30;99462.00;;;;4993914;28;20284;-75
2023/10/26 07:28:45;;;;;;;8.27;4.13;;;13.50;70.10;15.40;99462.00;;;;4994923;28;20218;-76
2023/10/26 07:31:19;;;;;;;7.53;4.53;;;13.60;70.40;15.30;99468.00;;;;4994618;28;20325;-75
2023/10/26 07:33:46;;;;;;;7.78;4.55;;;13.60;70.40;15.40;99460.00;;;;4998932;28;20676;-75
2023/10/26 07:36:13;;;;;;;15.70;5.35;;;13.60;70.40;15.40;99458.00;;;;4992699;28;20671;-75
2023/10/26 07:38:40;;;;;;;5.65;4.47;;;13.60;71.10;15.40;99463.00;;;;4999909;28;20194;-75
2023/10/26 07:41:09;;;;;;;15.55;4.75;;;13.60;70.30;15.40;99461.00;;;;4991702;28;20224;-75
2023/10/26 07:43:36;;;;;;;18.15;4.75;;;13.60;70.30;15.40;99452.00;;;;5000224;28;20194;-75
2023/10/26 07:46:04;;;;;;;17.20;5.03;;;13.60;70.30;15.40;99448.00;;;;4999092;28;20317;-76
2023/10/26 07:48:31;;;;;;;13.00;4.88;;;13.60;70.20;15.40;99458.00;;;;4996112;28;20292;-75
2023/10/26 07:50:58;;;;;;;10.20;4.47;;;13.60;70.20;15.40;99451.00;;;;4997138;28;20658;-76
2023/10/26 07:53:28;;;;;;;12.32;5.07;;;13.60;70.10;15.40;99446.00;;;;4998642;28;20193;-76
2023/10/26 07:55:57;;;;;;;15.88;4.47;;;13.60;70.10;15.40;99454.00;;;;4996787;28;20651;-76
2023/10/26 07:58:26;;;;;;;9.57;4.78;;;13.60;70.20;15.40;99458.00;;;;4997141;28;20576;-76
2023/10/26 08:00:53;;;;;;;13.40;5.60;;;13.60;70.20;15.40;99466.00;;;;4997545;28;20673;-75
2023/10/26 08:03:23;;;;;;;12.50;4.72;;;13.60;70.10;15.40;99465.00;;;;4996508;28;20578;-75
2023/10/26 08:05:57;;;;;;;13.23;5.07;;;13.60;70.10;15.40;99464.00;;;;4998335;28;20716;-75
2023/10/26 08:08:25;;;;;;;9.85;5.05;;;13.70;70.80;15.50;99460.00;;;;4997964;28;20728;-75
2023/10/26 08:10:52;;;;;;;9.60;4.15;;;13.60;70.10;15.50;99457.00;;;;4997101;28;20231;-75
2023/10/26 08:13:19;;;;;;;7.88;4.18;;;13.70;70.20;15.50;99461.00;;;;5000070;28;20211;-75
2023/10/26 08:15:48;;;;;;;7.35;4.50;;;13.70;70.20;15.50;99468.00;;;;4998385;28;20521;-76
2023/10/26 08:18:15;;;;;;;9.27;4.50;;;13.70;70.30;15.50;99468.00;;;;4999509;28;20327;-75
2023/10/26 08:20:42;;;;;;;13.18;4.70;;;13.70;70.30;15.60;99465.00;;;;5000405;28;20197;-75
2023/10/26 08:23:09;;;;;;;8.25;4.72;;;13.70;71.00;15.50;99465.00;;;;4995724;28;20589;-75
2023/10/26 08:25:36;;;;;;;19.98;4.93;;;13.70;70.20;15.50;99470.00;;;;4999702;28;20227;-75
2023/10/26 08:28:04;;;;;;;7.53;4.90;;;13.70;70.10;15.50;99473.00;;;;4994207;28;20221;-76
2023/10/26 08:30:31;;;;;;;7.57;4.88;;;13.70;70.10;15.50;99477.00;;;;5000379;28;20655;-75
2023/10/26 08:33:04;;;;;;;11.68;4.40;;;13.70;70.10;15.60;99491.00;;;;5004584;28;20677;-75
2023/10/26 08:35:31;;;;;;;7.22;4.38;;;13.70;70.10;15.60;99495.00;;;;4996720;28;20198;-75
2023/10/26 08:37:58;;;;;;;12.90;5.18;;;13.70;70.20;15.60;99493.00;;;;4994184;28;20641;-76
2023/10/26 08:40:25;;;;;;;10.57;5.38;;;13.80;70.30;15.60;99494.00;;;;5001060;28;20212;-75
2023/10/26 08:42:52;;;;;;;4.97;4.10;;;13.80;70.30;15.60;99497.00;;;;5010708;28;20216;-75
2023/10/26 08:45:27;;;;;;;12.13;4.57;;;13.80;70.20;15.60;99497.00;;;;4998935;28;20291;-75
2023/10/26 08:47:57;;;;;;;8.20;4.70;;;13.80;70.10;15.60;99505.00;;;;4995251;28;20205;-75
2023/10/26 08:50:25;;;;;;;8.55;5.00;;;13.80;70.10;15.70;99515.00;;;;4996247;28;20584;-75
2023/10/26 08:52:52;;;;;;;4.72;4.28;;;13.80;70.20;15.70;99509.00;;;;5000773;28;20666;-75
2023/10/26 08:55:20;;;;;;;6.25;4.75;;;13.80;70.20;15.70;99498.00;;;;4998957;28;20802;-75
2023/10/26 08:57:50;;;;;;;5.97;4.60;;;13.80;70.40;15.70;99503.00;;;;4997310;28;20212;-76
2023/10/26 09:00:18;;;;;;;5.32;4.53;;;13.90;70.40;15.80;99500.00;;;;4993947;28;20658;-76
2023/10/26 09:02:45;;;;;;;7.85;4.38;;;13.90;70.30;15.80;99511.00;;;;4996400;28;20206;-75
2023/10/26 09:05:12;;;;;;;7.25;4.70;;;13.90;70.30;15.80;99508.00;;;;4997651;28;20267;-75
2023/10/26 09:07:41;;;;;;;7.00;4.65;;;13.90;70.30;15.80;99499.00;;;;4998415;28;20574;-76
2023/10/26 09:10:09;;;;;;;6.03;4.57;;;13.90;70.40;15.80;99498.00;;;;4999088;28;20197;-76
2023/10/26 09:12:36;;;;;;;6.25;4.38;;;14.00;70.30;15.90;99498.00;;;;5006311;28;20202;-75
2023/10/26 09:15:06;;;;;;;6.40;5.65;;;14.00;70.40;15.90;99491.00;;;;5000685;28;20224;-75
2023/10/26 09:17:35;;;;;;;7.53;5.20;;;14.00;70.50;15.90;99486.00;;;;4999231;28;20202;-75
2023/10/26 09:20:17;;;;;;;8.10;5.15;;;14.10;70.60;15.80;99487.00;;;;4993884;28;20202;-75
2023/10/26 09:22:45;;;;;;;5.60;4.78;;;14.00;70.50;16.00;99491.00;;;;5002733;28;20201;-76
2023/10/26 09:25:14;;;;;;;7.38;5.25;;;14.10;70.50;16.00;99491.00;;;;5008675;28;20433;-75
2023/10/26 09:27:43;;;;;;;6.68;5.07;;;14.10;70.50;16.00;99498.00;;;;4998730;28;20222;-75
2023/10/26 09:30:27;;;;;;;6.00;4.70;;;14.10;70.40;16.00;99495.00;;;;4999618;28;20198;-75
2023/10/26 09:32:56;;;;;;;6.32;4.95;;;14.20;70.60;16.10;99497.00;;;;4998389;28;20204;-75
2023/10/26 09:35:27;;;;;;;6.68;5.55;;;14.20;70.60;16.10;99495.00;;;;4993461;28;20197;-75
2023/10/26 09:37:57;;;;;;;6.13;5.10;;;14.30;70.80;16.20;99496.00;;;;5005230;28;20201;-75
2023/10/26 09:40:26;;;;;;;5.38;4.70;;;14.30;70.80;16.30;99490.00;;;;4998404;28;20200;-75
2023/10/26 09:42:55;;;;;;;7.10;5.18;;;14.30;70.80;16.30;99488.00;;;;5005773;28;20204;-76
2023/10/26 09:45:23;;;;;;;6.13;5.30;;;14.40;70.90;16.40;99483.00;;;;5000206;28;20225;-75
2023/10/26 09:47:50;;;;;;;7.75;5.70;;;14.50;70.90;16.40;99480.00;;;;5002474;28;20283;-75
2023/10/26 09:50:17;;;;;;;7.03;5.70;;;14.50;70.90;16.50;99472.00;;;;5009805;28;20201;-75
2023/10/26 09:52:45;;;;;;;6.88;5.88;;;14.50;70.90;16.50;99478.00;;;;5003284;28;20204;-75
2023/10/26 09:55:15;;;;;;;6.85;5.45;;;14.60;71.00;16.60;99477.00;;;;5004690;28;20189;-76
2023/10/26 09:57:55;;;;;;;6.45;5.63;;;14.60;70.90;16.60;99474.00;;;;4999740;28;20205;-75
2023/10/26 10:00:32;;;;;;;6.72;5.40;;;14.70;70.90;16.60;99474.00;;;;4992289;28;20697;-75
2023/10/26 10:03:13;;;;;;;6.43;5.63;;;14.70;70.90;16.60;99476.00;;;;4995650;28;20224;-75
2023/10/26 10:05:43;;;;;;;6.85;6.03;;;14.80;70.80;16.70;99469.00;;;;5003603;28;20643;-75
2023/10/26 10:08:11;;;;;;;7.13;5.95;;;14.90;70.80;16.80;99471.00;;;;5001568;28;20240;-75
2023/10/26 10:11:16;;;;;;;7.65;6.35;;;14.90;70.70;16.70;99477.00;;;;5004049;28;20196;-74
2023/10/26 10:13:43;;;;;;;8.18;5.75;;;14.90;70.60;16.90;99457.00;;;;4999740;28;20193;-76
2023/10/26 10:16:51;;;;;;;6.32;5.47;;;15.00;70.60;16.80;99457.00;;;;4994889;28;20655;-76
2023/10/26 10:19:20;;;;;;;7.40;5.57;;;15.00;70.60;17.00;99446.00;;;;5007952;28;20209;-77
2023/10/26 10:21:48;;;;;;;9.18;6.45;;;15.10;70.60;17.00;99447.00;;;;4999071;28;20552;-76
2023/10/26 10:24:50;;;;;;;8.80;6.30;;;15.10;70.50;17.00;99446.00;;;;4992580;28;20193;-76
2023/10/26 10:27:19;;;;;;;6.95;5.70;;;15.20;70.40;17.10;99453.00;;;;5006156;28;20248;-76
2023/10/26 10:29:46;;;;;;;7.53;6.25;;;15.20;70.40;17.10;99436.00;;;;4998419;28;20248;-76
2023/10/26 10:32:50;;;;;;;7.32;5.68;;;15.20;70.40;17.10;99439.00;;;;4996719;28;20198;-77
2023/10/26 10:35:39;;;;;;;7.63;5.78;;;15.20;70.30;17.10;99447.00;;;;4993137;28;20208;-76
2023/10/26 10:38:20;;;;;;;6.00;5.40;;;15.30;70.20;17.10;99446.00;;;;5000997;28;20284;-76
2023/10/26 10:41:14;;;;;;;6.82;5.75;;;15.30;70.10;17.10;99443.00;;;;5000035;28;20194;-76
2023/10/26 10:43:46;;;;;;;7.35;6.25;;;15.30;70.00;17.20;99446.00;;;;4994167;28;20200;-76
2023/10/26 10:46:16;;;;;;;7.07;6.35;;;15.40;70.10;17.20;99429.00;;;;5006357;28;20294;-76
2023/10/26 10:48:58;;;;;;;7.50;6.32;;;15.40;70.10;17.10;99428.00;;;;4995265;28;20194;-76
2023/10/26 10:51:29;;;;;;;6.70;5.78;;;15.30;69.90;17.20;99430.00;;;;4999616;28;20208;-76
2023/10/26 10:53:57;;;;;;;6.65;5.70;;;15.40;69.90;17.30;99431.00;;;;4999681;28;20194;-76
2023/10/26 10:56:25;;;;;;;7.55;6.65;;;15.40;70.60;17.30;99426.00;;;;5003907;28;20209;-76
2023/10/26 10:58:55;;;;;;;7.00;6.30;;;15.40;70.70;17.30;99430.00;;;;5001081;28;20196;-76